Last Tycoon — ZDJZ6 — position and weather

sailwx.info

Track history (hours):
 
Tides and Currents Weather Stations Pressure Air Temp Water Temp Dewpoint Dewpoint Depression Visibility Wind Speed Wind Dir Waves Ship Positions

Last Tycoon

Last reported at 2017-Jan-29 06:30 UTC. Time now 2017-Feb-27 06:53 UTC.
Position N 42°17' W 070°06'.
Warning: this ship's position is 29 days out of date.

Length 180 m; draft 6.5 m.

Type: Cargo ship. MMSI: 236607000.

Date/timePositionNaut miles runAvg speedWind from/ knotsBaromVisibWave heightAir tempDewpointWater temp
2017-Jan-29 06:30N 42°17' W 070°06'1313.2
2017-Jan-29 05:33N 42°18' W 070°23'1312.8
2017-Jan-29 04:33N 42°20' W 070°40'1111.5
2017-Jan-29 03:34N 42°22' W 070°55'5 5.1
2017-Jan-29 02:33N 42°23' W 071°02'0 0.1
2017-Jan-29 01:33N 42°23' W 071°02'0 0.0
2017-Jan-29 00:33N 42°23' W 071°02'0 0.0
2017-Jan-28 23:33N 42°23' W 071°02'0 0.0
2017-Jan-28 22:33N 42°23' W 071°02'0 0.0
2017-Jan-28 21:33N 42°23' W 071°02'0 0.0
2017-Jan-28 20:33N 42°23' W 071°02'0 0.0
2017-Jan-28 19:33N 42°23' W 071°02'0 0.0
2017-Jan-28 18:33N 42°23' W 071°02'0 0.0
2017-Jan-28 17:33N 42°23' W 071°02'0 0.0
2017-Jan-28 16:33N 42°23' W 071°02'0 0.0
2017-Jan-28 15:30N 42°23' W 071°02'0 0.0
2017-Jan-28 14:33N 42°23' W 071°02'0 0.0
2017-Jan-28 13:33N 42°23' W 071°02'0 0.0
2017-Jan-28 12:33N 42°23' W 071°02'0 0.0
2017-Jan-28 11:33N 42°23' W 071°02'0 0.0
2017-Jan-28 10:33N 42°23' W 071°02'0 0.0
2017-Jan-28 09:33N 42°23' W 071°02'0 0.0
2017-Jan-28 08:33N 42°23' W 071°02'0 0.0
2017-Jan-28 07:33N 42°23' W 071°02'0 0.0
2017-Jan-28 06:33N 42°23' W 071°02'0 0.0
2017-Jan-28 05:30N 42°23' W 071°02'0 0.0
2017-Jan-28 04:33N 42°23' W 071°02'0 0.0
2017-Jan-28 03:33N 42°23' W 071°02'0 0.0
2017-Jan-28 02:33N 42°23' W 071°02'0 0.0
2017-Jan-28 01:33N 42°23' W 071°02'0 0.0
2017-Jan-28 00:33N 42°23' W 071°02'0 0.0
2017-Jan-27 23:33N 42°23' W 071°02'0 0.0
2017-Jan-27 22:33N 42°23' W 071°02'0 0.0
2017-Jan-27 21:33N 42°23' W 071°02'0 0.0
2017-Jan-27 20:33N 42°23' W 071°02'0 0.0
2017-Jan-27 19:33N 42°23' W 071°02'0 0.0
2017-Jan-27 18:33N 42°23' W 071°02'0 0.0
2017-Jan-27 17:33N 42°23' W 071°02'0 0.0
2017-Jan-27 16:33N 42°23' W 071°02'0 0.0
2017-Jan-27 15:33N 42°23' W 071°02'0 0.0
2017-Jan-27 14:33N 42°23' W 071°02'0 0.0
2017-Jan-27 13:33N 42°23' W 071°02'0 0.0
2017-Jan-27 12:33N 42°23' W 071°02'0 0.0
2017-Jan-27 11:33N 42°23' W 071°02'0 0.0
2017-Jan-27 10:33N 42°23' W 071°02'0 0.0
2017-Jan-27 09:33N 42°23' W 071°02'0 0.0
2017-Jan-27 08:33N 42°23' W 071°02'0 0.0
2017-Jan-27 07:33N 42°23' W 071°02'0 0.0
2017-Jan-27 06:33N 42°23' W 071°02'0 0.0
2017-Jan-27 05:33N 42°23' W 071°02'0 0.0
2017-Jan-27 04:33N 42°23' W 071°02'0 0.0
2017-Jan-27 03:33N 42°23' W 071°02'0 0.0
2017-Jan-27 02:33N 42°23' W 071°02'0 0.0
2017-Jan-27 01:33N 42°23' W 071°02'0 0.0
2017-Jan-27 00:33N 42°23' W 071°02'0 0.0
2017-Jan-26 23:33N 42°23' W 071°02'0 0.0
2017-Jan-26 22:33N 42°23' W 071°02'0 0.0
2017-Jan-26 21:33N 42°23' W 071°02'0 0.0
2017-Jan-26 20:30N 42°23' W 071°02'0 0.0
2017-Jan-26 19:33N 42°23' W 071°02'0 0.0
2017-Jan-26 18:33N 42°23' W 071°02'0 0.0
2017-Jan-26 17:33N 42°23' W 071°02'0 0.0
2017-Jan-26 16:33N 42°23' W 071°02'0 0.0
2017-Jan-26 15:33N 42°23' W 071°02'0 0.0
2017-Jan-26 14:33N 42°23' W 071°02'0 0.0
2017-Jan-26 13:33N 42°23' W 071°02'0 0.0
2017-Jan-26 12:33N 42°23' W 071°02'0 0.4
2017-Jan-26 11:33N 42°23' W 071°03'5 5.3
2017-Jan-26 10:33N 42°21' W 070°56'8 8.3
2017-Jan-26 09:34N 42°26' W 070°47'0 0.1
2017-Jan-26 08:32N 42°26' W 070°47'0 0.0
2017-Jan-26 07:32N 42°26' W 070°47'0 0.0
2017-Jan-26 06:32N 42°26' W 070°47'0 0.0
2017-Jan-26 05:32N 42°26' W 070°47'0 0.0
2017-Jan-26 04:32N 42°26' W 070°47'0 0.0
2017-Jan-26 03:32N 42°26' W 070°47'0 0.0
2017-Jan-26 02:32N 42°26' W 070°47'0 0.1
2017-Jan-26 01:29N 42°26' W 070°46'0 0.1
2017-Jan-26 00:32N 42°26' W 070°46'0 0.0
2017-Jan-25 23:32N 42°26' W 070°47'0 0.0
2017-Jan-25 22:32N 42°26' W 070°47'1 1.1
2017-Jan-25 21:34N 42°25' W 070°45'5 4.5
2017-Jan-25 20:34N 42°21' W 070°42'1 1.3
2017-Jan-25 19:34N 42°22' W 070°43'1 1.2
2017-Jan-25 18:34N 42°23' W 070°44'1 1.3
2017-Jan-25 17:34N 42°24' W 070°45'1 1.2
2017-Jan-25 16:34N 42°25' W 070°46'1 1.1
2017-Jan-25 15:34N 42°26' W 070°47'1 0.9
2017-Jan-25 14:34N 42°26' W 070°47'4 3.6
2017-Jan-25 13:34N 42°28' W 070°43'3 2.7
2017-Jan-25 12:34N 42°25' W 070°42'3 2.5
2017-Jan-25 11:34N 42°23' W 070°42'2 2.1
2017-Jan-25 10:34N 42°21' W 070°43'2 2.1
2017-Jan-25 09:33N 42°19' W 070°43'0 0.4
2017-Jan-25 08:34N 42°19' W 070°43'1 1.3
2017-Jan-25 07:33N 42°20' W 070°43'1 1.4
2017-Jan-25 06:34N 42°21' W 070°43'2 1.5
2017-Jan-25 05:34N 42°23' W 070°44'3 3.3
2017-Jan-25 04:34N 42°26' W 070°44'3 2.7
2017-Jan-25 03:33N 42°29' W 070°43'2 1.7
2017-Jan-25 02:34N 42°27' W 070°42'1 1.4
2017-Jan-25 01:34N 42°26' W 070°42'1 1.1
2017-Jan-25 00:34N 42°25' W 070°41'2 1.7
2017-Jan-24 23:34N 42°23' W 070°41'4 3.7
2017-Jan-24 22:34N 42°22' W 070°36'6 5.6
2017-Jan-24 21:33N 42°21' W 070°29'6 5.8
2017-Jan-24 20:34N 42°21' W 070°21'6 6.1
2017-Jan-24 19:34N 42°20' W 070°13'7 6.5
2017-Jan-24 18:32N 42°20' W 070°04'4 4.2
2017-Jan-24 17:34N 42°18' W 069°59'4 3.8
2017-Jan-24 16:33N 42°18' W 070°04'4 3.7
2017-Jan-24 15:34N 42°18' W 070°09'3 3.0
2017-Jan-24 14:33N 42°18' W 070°13'2 2.1
2017-Jan-24 13:34N 42°18' W 070°16'3 3.2
2017-Jan-24 12:34N 42°18' W 070°20'4 3.8
2017-Jan-24 11:34N 42°18' W 070°25'4 4.1
2017-Jan-24 10:33N 42°19' W 070°31'4 3.7
2017-Jan-24 09:34N 42°19' W 070°36'4 3.9
2017-Jan-24 08:34N 42°21' W 070°40'4 3.7
2017-Jan-24 07:34N 42°25' W 070°42'2 1.5
2017-Jan-24 06:34N 42°26' W 070°44'1 1.3
2017-Jan-24 05:33N 42°25' W 070°46'1 0.5
2017-Jan-24 04:33N 42°25' W 070°45'0 0.5
2017-Jan-24 03:33N 42°26' W 070°44'2 2.1
2017-Jan-24 02:33N 42°25' W 070°47'1 0.7
2017-Jan-24 01:33N 42°25' W 070°48'0 0.3
2017-Jan-24 00:33N 42°25' W 070°47'0 0.2
2017-Jan-23 23:33N 42°25' W 070°47'0 0.0
2017-Jan-23 22:33N 42°25' W 070°47'0 0.0
2017-Jan-23 21:33N 42°25' W 070°47'0 0.0
2017-Jan-23 20:33N 42°25' W 070°47'0 0.0
2017-Jan-23 19:33N 42°25' W 070°47'0 0.0
2017-Jan-23 18:33N 42°25' W 070°47'0 0.0
2017-Jan-23 17:33N 42°25' W 070°47'0 0.0
2017-Jan-23 16:33N 42°25' W 070°47'0 0.0
2017-Jan-23 15:33N 42°25' W 070°47'0 0.0
2017-Jan-23 14:33N 42°25' W 070°47'0 0.0
2017-Jan-23 13:33N 42°25' W 070°47'0 0.0
2017-Jan-23 12:33N 42°25' W 070°47'0 0.0
2017-Jan-23 11:33N 42°25' W 070°47'0 0.0
2017-Jan-23 10:33N 42°25' W 070°47'0 0.0
2017-Jan-23 09:33N 42°25' W 070°47'0 0.0
2017-Jan-23 08:33N 42°25' W 070°47'0 0.0
2017-Jan-23 07:33N 42°25' W 070°47'0 0.0
2017-Jan-23 06:33N 42°25' W 070°47'0 0.0
2017-Jan-23 05:33N 42°25' W 070°47'0 0.0
2017-Jan-23 04:33N 42°25' W 070°47'0 0.0
2017-Jan-23 03:33N 42°25' W 070°47'0 0.0
2017-Jan-23 02:33N 42°25' W 070°47'0 0.0
2017-Jan-23 01:33N 42°25' W 070°47'0 0.0
2017-Jan-23 00:33N 42°25' W 070°47'0 0.0
2017-Jan-22 23:33N 42°25' W 070°47'0 0.0
2017-Jan-22 22:33N 42°25' W 070°47'0 0.0
2017-Jan-22 21:33N 42°25' W 070°47'0 0.0
2017-Jan-22 20:33N 42°25' W 070°47'0 0.0
2017-Jan-22 19:33N 42°25' W 070°47'0 0.0
2017-Jan-22 18:33N 42°25' W 070°47'0 0.0
2017-Jan-22 17:33N 42°25' W 070°47'0 0.0
2017-Jan-22 16:33N 42°25' W 070°47'0 0.0
2017-Jan-22 15:33N 42°25' W 070°47'0 0.0
2017-Jan-22 14:33N 42°25' W 070°47'0 0.0
2017-Jan-22 13:33N 42°25' W 070°47'0 0.1
2017-Jan-22 12:33N 42°25' W 070°47'0 0.0
2017-Jan-22 11:33N 42°25' W 070°47'0 0.1
2017-Jan-22 10:33N 42°25' W 070°47'0 0.1
2017-Jan-22 09:33N 42°25' W 070°47'0 0.0
2017-Jan-22 08:33N 42°25' W 070°47'0 0.1
2017-Jan-22 07:33N 42°25' W 070°47'0 0.1
2017-Jan-22 06:33N 42°25' W 070°47'0 0.1
2017-Jan-22 05:33N 42°25' W 070°47'0 0.0
2017-Jan-22 04:33N 42°25' W 070°47'0 0.0
2017-Jan-22 03:30N 42°25' W 070°47'0 0.0
2017-Jan-22 02:33N 42°25' W 070°47'0 0.0
2017-Jan-22 01:33N 42°25' W 070°47'0 0.0
2017-Jan-22 00:30N 42°25' W 070°47'0 0.0
2017-Jan-21 23:33N 42°25' W 070°47'0 0.1
2017-Jan-21 22:33N 42°25' W 070°47'0 0.1
2017-Jan-21 21:33N 42°25' W 070°47'0 0.1
2017-Jan-21 20:33N 42°25' W 070°47'0 0.0
2017-Jan-21 19:33N 42°25' W 070°47'0 0.0
2017-Jan-21 18:33N 42°25' W 070°47'0 0.0
2017-Jan-21 17:33N 42°25' W 070°47'0 0.0
2017-Jan-21 16:33N 42°25' W 070°47'0 0.0
2017-Jan-21 15:33N 42°25' W 070°47'0 0.0
2017-Jan-21 14:33N 42°25' W 070°47'0 0.0
2017-Jan-21 13:33N 42°25' W 070°47'0 0.1
2017-Jan-21 12:33N 42°25' W 070°47'0 0.1
2017-Jan-21 11:33N 42°25' W 070°47'0 0.1
2017-Jan-21 10:33N 42°25' W 070°47'0 0.0
2017-Jan-21 09:33N 42°25' W 070°47'0 0.1
2017-Jan-21 08:33N 42°25' W 070°47'0 0.0
2017-Jan-21 07:33N 42°25' W 070°47'0 0.1
2017-Jan-21 06:33N 42°25' W 070°47'0 0.1
2017-Jan-21 05:33N 42°25' W 070°47'0 0.0
2017-Jan-21 04:33N 42°25' W 070°47'0 0.0
2017-Jan-21 03:33N 42°25' W 070°47'0 0.0
2017-Jan-21 02:27N 42°25' W 070°47'0 0.1
2017-Jan-21 01:33N 42°25' W 070°47'5 4.9
2017-Jan-21 00:33N 42°23' W 070°41'1010.0
2017-Jan-20 23:33N 42°21' W 070°27'1111.3
2017-Jan-20 22:33N 42°20' W 070°12'4410.9
2017-Jan-20 18:28N 41°45' W 069°36'1111.5
2017-Jan-20 17:33N 41°35' W 069°30'1212.2
2017-Jan-20 16:32N 41°24' W 069°22'  
Track history (hours):
 
Tides and Currents Weather Stations Pressure Air Temp Water Temp Dewpoint Dewpoint Depression Visibility Wind Speed Wind Dir Waves Ship Positions

Last Tycoon

Last reported at 2017-Jan-29 06:30 UTC. Time now 2017-Feb-27 06:53 UTC.
Position N 42°17' W 070°06'.
Warning: this ship's position is 29 days out of date.

Length 180 m; draft 6.5 m.

Type: Cargo ship. MMSI: 236607000.

Date/timePositionNaut miles runAvg speedWind from/ knotsBaromVisibWave heightAir tempDewpointWater temp
2017-Jan-29 06:30N 42°17' W 070°06'1313.2
2017-Jan-29 05:33N 42°18' W 070°23'1312.8
2017-Jan-29 04:33N 42°20' W 070°40'1111.5
2017-Jan-29 03:34N 42°22' W 070°55'5 5.1
2017-Jan-29 02:33N 42°23' W 071°02'0 0.1
2017-Jan-29 01:33N 42°23' W 071°02'0 0.0
2017-Jan-29 00:33N 42°23' W 071°02'0 0.0
2017-Jan-28 23:33N 42°23' W 071°02'0 0.0
2017-Jan-28 22:33N 42°23' W 071°02'0 0.0
2017-Jan-28 21:33N 42°23' W 071°02'0 0.0
2017-Jan-28 20:33N 42°23' W 071°02'0 0.0
2017-Jan-28 19:33N 42°23' W 071°02'0 0.0
2017-Jan-28 18:33N 42°23' W 071°02'0 0.0
2017-Jan-28 17:33N 42°23' W 071°02'0 0.0
2017-Jan-28 16:33N 42°23' W 071°02'0 0.0
2017-Jan-28 15:30N 42°23' W 071°02'0 0.0
2017-Jan-28 14:33N 42°23' W 071°02'0 0.0
2017-Jan-28 13:33N 42°23' W 071°02'0 0.0
2017-Jan-28 12:33N 42°23' W 071°02'0 0.0
2017-Jan-28 11:33N 42°23' W 071°02'0 0.0
2017-Jan-28 10:33N 42°23' W 071°02'0 0.0
2017-Jan-28 09:33N 42°23' W 071°02'0 0.0
2017-Jan-28 08:33N 42°23' W 071°02'0 0.0
2017-Jan-28 07:33N 42°23' W 071°02'0 0.0
2017-Jan-28 06:33N 42°23' W 071°02'0 0.0
2017-Jan-28 05:30N 42°23' W 071°02'0 0.0
2017-Jan-28 04:33N 42°23' W 071°02'0 0.0
2017-Jan-28 03:33N 42°23' W 071°02'0 0.0
2017-Jan-28 02:33N 42°23' W 071°02'0 0.0
2017-Jan-28 01:33N 42°23' W 071°02'0 0.0
2017-Jan-28 00:33N 42°23' W 071°02'0 0.0
2017-Jan-27 23:33N 42°23' W 071°02'0 0.0
2017-Jan-27 22:33N 42°23' W 071°02'0 0.0
2017-Jan-27 21:33N 42°23' W 071°02'0 0.0
2017-Jan-27 20:33N 42°23' W 071°02'0 0.0
2017-Jan-27 19:33N 42°23' W 071°02'0 0.0
2017-Jan-27 18:33N 42°23' W 071°02'0 0.0
2017-Jan-27 17:33N 42°23' W 071°02'0 0.0
2017-Jan-27 16:33N 42°23' W 071°02'0 0.0
2017-Jan-27 15:33N 42°23' W 071°02'0 0.0
2017-Jan-27 14:33N 42°23' W 071°02'0 0.0
2017-Jan-27 13:33N 42°23' W 071°02'0 0.0
2017-Jan-27 12:33N 42°23' W 071°02'0 0.0
2017-Jan-27 11:33N 42°23' W 071°02'0 0.0
2017-Jan-27 10:33N 42°23' W 071°02'0 0.0
2017-Jan-27 09:33N 42°23' W 071°02'0 0.0
2017-Jan-27 08:33N 42°23' W 071°02'0 0.0
2017-Jan-27 07:33N 42°23' W 071°02'0 0.0
2017-Jan-27 06:33N 42°23' W 071°02'0 0.0
2017-Jan-27 05:33N 42°23' W 071°02'0 0.0
2017-Jan-27 04:33N 42°23' W 071°02'0 0.0
2017-Jan-27 03:33N 42°23' W 071°02'0 0.0
2017-Jan-27 02:33N 42°23' W 071°02'0 0.0
2017-Jan-27 01:33N 42°23' W 071°02'0 0.0
2017-Jan-27 00:33N 42°23' W 071°02'0 0.0
2017-Jan-26 23:33N 42°23' W 071°02'0 0.0
2017-Jan-26 22:33N 42°23' W 071°02'0 0.0
2017-Jan-26 21:33N 42°23' W 071°02'0 0.0
2017-Jan-26 20:30N 42°23' W 071°02'0 0.0
2017-Jan-26 19:33N 42°23' W 071°02'0 0.0
2017-Jan-26 18:33N 42°23' W 071°02'0 0.0
2017-Jan-26 17:33N 42°23' W 071°02'0 0.0
2017-Jan-26 16:33N 42°23' W 071°02'0 0.0
2017-Jan-26 15:33N 42°23' W 071°02'0 0.0
2017-Jan-26 14:33N 42°23' W 071°02'0 0.0
2017-Jan-26 13:33N 42°23' W 071°02'0 0.0
2017-Jan-26 12:33N 42°23' W 071°02'0 0.4
2017-Jan-26 11:33N 42°23' W 071°03'5 5.3
2017-Jan-26 10:33N 42°21' W 070°56'8 8.3
2017-Jan-26 09:34N 42°26' W 070°47'0 0.1
2017-Jan-26 08:32N 42°26' W 070°47'0 0.0
2017-Jan-26 07:32N 42°26' W 070°47'0 0.0
2017-Jan-26 06:32N 42°26' W 070°47'0 0.0
2017-Jan-26 05:32N 42°26' W 070°47'0 0.0
2017-Jan-26 04:32N 42°26' W 070°47'0 0.0
2017-Jan-26 03:32N 42°26' W 070°47'0 0.0
2017-Jan-26 02:32N 42°26' W 070°47'0 0.1
2017-Jan-26 01:29N 42°26' W 070°46'0 0.1
2017-Jan-26 00:32N 42°26' W 070°46'0 0.0
2017-Jan-25 23:32N 42°26' W 070°47'0 0.0
2017-Jan-25 22:32N 42°26' W 070°47'1 1.1
2017-Jan-25 21:34N 42°25' W 070°45'5 4.5
2017-Jan-25 20:34N 42°21' W 070°42'1 1.3
2017-Jan-25 19:34N 42°22' W 070°43'1 1.2
2017-Jan-25 18:34N 42°23' W 070°44'1 1.3
2017-Jan-25 17:34N 42°24' W 070°45'1 1.2
2017-Jan-25 16:34N 42°25' W 070°46'1 1.1
2017-Jan-25 15:34N 42°26' W 070°47'1 0.9
2017-Jan-25 14:34N 42°26' W 070°47'4 3.6
2017-Jan-25 13:34N 42°28' W 070°43'3 2.7
2017-Jan-25 12:34N 42°25' W 070°42'3 2.5
2017-Jan-25 11:34N 42°23' W 070°42'2 2.1
2017-Jan-25 10:34N 42°21' W 070°43'2 2.1
2017-Jan-25 09:33N 42°19' W 070°43'0 0.4
2017-Jan-25 08:34N 42°19' W 070°43'1 1.3
2017-Jan-25 07:33N 42°20' W 070°43'1 1.4
2017-Jan-25 06:34N 42°21' W 070°43'2 1.5
2017-Jan-25 05:34N 42°23' W 070°44'3 3.3
2017-Jan-25 04:34N 42°26' W 070°44'3 2.7
2017-Jan-25 03:33N 42°29' W 070°43'2 1.7
2017-Jan-25 02:34N 42°27' W 070°42'1 1.4
2017-Jan-25 01:34N 42°26' W 070°42'1 1.1
2017-Jan-25 00:34N 42°25' W 070°41'2 1.7
2017-Jan-24 23:34N 42°23' W 070°41'4 3.7
2017-Jan-24 22:34N 42°22' W 070°36'6 5.6
2017-Jan-24 21:33N 42°21' W 070°29'6 5.8
2017-Jan-24 20:34N 42°21' W 070°21'6 6.1
2017-Jan-24 19:34N 42°20' W 070°13'7 6.5
2017-Jan-24 18:32N 42°20' W 070°04'4 4.2
2017-Jan-24 17:34N 42°18' W 069°59'4 3.8
2017-Jan-24 16:33N 42°18' W 070°04'4 3.7
2017-Jan-24 15:34N 42°18' W 070°09'3 3.0
2017-Jan-24 14:33N 42°18' W 070°13'2 2.1
2017-Jan-24 13:34N 42°18' W 070°16'3 3.2
2017-Jan-24 12:34N 42°18' W 070°20'4 3.8
2017-Jan-24 11:34N 42°18' W 070°25'4 4.1
2017-Jan-24 10:33N 42°19' W 070°31'4 3.7
2017-Jan-24 09:34N 42°19' W 070°36'4 3.9
2017-Jan-24 08:34N 42°21' W 070°40'4 3.7
2017-Jan-24 07:34N 42°25' W 070°42'2 1.5
2017-Jan-24 06:34N 42°26' W 070°44'1 1.3
2017-Jan-24 05:33N 42°25' W 070°46'1 0.5
2017-Jan-24 04:33N 42°25' W 070°45'0 0.5
2017-Jan-24 03:33N 42°26' W 070°44'2 2.1
2017-Jan-24 02:33N 42°25' W 070°47'1 0.7
2017-Jan-24 01:33N 42°25' W 070°48'0 0.3
2017-Jan-24 00:33N 42°25' W 070°47'0 0.2
2017-Jan-23 23:33N 42°25' W 070°47'0 0.0
2017-Jan-23 22:33N 42°25' W 070°47'0 0.0
2017-Jan-23 21:33N 42°25' W 070°47'0 0.0
2017-Jan-23 20:33N 42°25' W 070°47'0 0.0
2017-Jan-23 19:33N 42°25' W 070°47'0 0.0
2017-Jan-23 18:33N 42°25' W 070°47'0 0.0
2017-Jan-23 17:33N 42°25' W 070°47'0 0.0
2017-Jan-23 16:33N 42°25' W 070°47'0 0.0
2017-Jan-23 15:33N 42°25' W 070°47'0 0.0
2017-Jan-23 14:33N 42°25' W 070°47'0 0.0
2017-Jan-23 13:33N 42°25' W 070°47'0 0.0
2017-Jan-23 12:33N 42°25' W 070°47'0 0.0
2017-Jan-23 11:33N 42°25' W 070°47'0 0.0
2017-Jan-23 10:33N 42°25' W 070°47'0 0.0
2017-Jan-23 09:33N 42°25' W 070°47'0 0.0
2017-Jan-23 08:33N 42°25' W 070°47'0 0.0
2017-Jan-23 07:33N 42°25' W 070°47'0 0.0
2017-Jan-23 06:33N 42°25' W 070°47'0 0.0
2017-Jan-23 05:33N 42°25' W 070°47'0 0.0
2017-Jan-23 04:33N 42°25' W 070°47'0 0.0
2017-Jan-23 03:33N 42°25' W 070°47'0 0.0
2017-Jan-23 02:33N 42°25' W 070°47'0 0.0
2017-Jan-23 01:33N 42°25' W 070°47'0 0.0
2017-Jan-23 00:33N 42°25' W 070°47'0 0.0
2017-Jan-22 23:33N 42°25' W 070°47'0 0.0
2017-Jan-22 22:33N 42°25' W 070°47'0 0.0
2017-Jan-22 21:33N 42°25' W 070°47'0 0.0
2017-Jan-22 20:33N 42°25' W 070°47'0 0.0
2017-Jan-22 19:33N 42°25' W 070°47'0 0.0
2017-Jan-22 18:33N 42°25' W 070°47'0 0.0
2017-Jan-22 17:33N 42°25' W 070°47'0 0.0
2017-Jan-22 16:33N 42°25' W 070°47'0 0.0
2017-Jan-22 15:33N 42°25' W 070°47'0 0.0
2017-Jan-22 14:33N 42°25' W 070°47'0 0.0
2017-Jan-22 13:33N 42°25' W 070°47'0 0.1
2017-Jan-22 12:33N 42°25' W 070°47'0 0.0
2017-Jan-22 11:33N 42°25' W 070°47'0 0.1
2017-Jan-22 10:33N 42°25' W 070°47'0 0.1
2017-Jan-22 09:33N 42°25' W 070°47'0 0.0
2017-Jan-22 08:33N 42°25' W 070°47'0 0.1
2017-Jan-22 07:33N 42°25' W 070°47'0 0.1
2017-Jan-22 06:33N 42°25' W 070°47'0 0.1
2017-Jan-22 05:33N 42°25' W 070°47'0 0.0
2017-Jan-22 04:33N 42°25' W 070°47'0 0.0
2017-Jan-22 03:30N 42°25' W 070°47'0 0.0
2017-Jan-22 02:33N 42°25' W 070°47'0 0.0
2017-Jan-22 01:33N 42°25' W 070°47'0 0.0
2017-Jan-22 00:30N 42°25' W 070°47'0 0.0
2017-Jan-21 23:33N 42°25' W 070°47'0 0.1
2017-Jan-21 22:33N 42°25' W 070°47'0 0.1
2017-Jan-21 21:33N 42°25' W 070°47'0 0.1
2017-Jan-21 20:33N 42°25' W 070°47'0 0.0
2017-Jan-21 19:33N 42°25' W 070°47'0 0.0
2017-Jan-21 18:33N 42°25' W 070°47'0 0.0
2017-Jan-21 17:33N 42°25' W 070°47'0 0.0
2017-Jan-21 16:33N 42°25' W 070°47'0 0.0
2017-Jan-21 15:33N 42°25' W 070°47'0 0.0
2017-Jan-21 14:33N 42°25' W 070°47'0 0.0
2017-Jan-21 13:33N 42°25' W 070°47'0 0.1
2017-Jan-21 12:33N 42°25' W 070°47'0 0.1
2017-Jan-21 11:33N 42°25' W 070°47'0 0.1
2017-Jan-21 10:33N 42°25' W 070°47'0 0.0
2017-Jan-21 09:33N 42°25' W 070°47'0 0.1
2017-Jan-21 08:33N 42°25' W 070°47'0 0.0
2017-Jan-21 07:33N 42°25' W 070°47'0 0.1
2017-Jan-21 06:33N 42°25' W 070°47'0 0.1
2017-Jan-21 05:33N 42°25' W 070°47'0 0.0
2017-Jan-21 04:33N 42°25' W 070°47'0 0.0
2017-Jan-21 03:33N 42°25' W 070°47'0 0.0
2017-Jan-21 02:27N 42°25' W 070°47'0 0.1
2017-Jan-21 01:33N 42°25' W 070°47'5 4.9
2017-Jan-21 00:33N 42°23' W 070°41'1010.0
2017-Jan-20 23:33N 42°21' W 070°27'1111.3
2017-Jan-20 22:33N 42°20' W 070°12'4410.9
2017-Jan-20 18:28N 41°45' W 069°36'1111.5
2017-Jan-20 17:33N 41°35' W 069°30'1212.2
2017-Jan-20 16:32N 41°24' W 069°22'  

Dump ship's entire track history